sensor_id;sensor_type;location;lat;lon;timestamp;temperature;humidity
33095;DHT22;19459;53.044;8.910;2022-07-25T00:01:48;21.20;99.90
33095;DHT22;19459;53.044;8.910;2022-07-25T00:04:14;21.20;99.90
33095;DHT22;19459;53.044;8.910;2022-07-25T00:06:41;21.20;99.90
33095;DHT22;19459;53.044;8.910;2022-07-25T00:09:07;21.20;99.90
33095;DHT22;19459;53.044;8.910;2022-07-25T00:11:33;21.10;99.90
33095;DHT22;19459;53.044;8.910;2022-07-25T00:13:59;21.10;99.90
33095;DHT22;19459;53.044;8.910;2022-07-25T00:16:25;21.10;99.90
33095;DHT22;19459;53.044;8.910;2022-07-25T00:18:51;21.10;99.90
33095;DHT22;19459;53.044;8.910;2022-07-25T00:21:17;21.00;99.90
33095;DHT22;19459;53.044;8.910;2022-07-25T00:23:43;21.00;99.90
33095;DHT22;19459;53.044;8.910;2022-07-25T00:26:09;20.90;99.90
33095;DHT22;19459;53.044;8.910;2022-07-25T00:28:35;20.90;99.90
33095;DHT22;19459;53.044;8.910;2022-07-25T00:31:01;20.90;99.90
33095;DHT22;19459;53.044;8.910;2022-07-25T00:33:27;20.80;99.90
33095;DHT22;19459;53.044;8.910;2022-07-25T00:35:53;20.80;99.90
33095;DHT22;19459;53.044;8.910;2022-07-25T00:38:19;20.80;99.90
33095;DHT22;19459;53.044;8.910;2022-07-25T00:40:44;20.70;99.90
33095;DHT22;19459;53.044;8.910;2022-07-25T00:43:11;20.70;99.90
33095;DHT22;19459;53.044;8.910;2022-07-25T00:45:37;20.70;99.90
33095;DHT22;19459;53.044;8.910;2022-07-25T00:48:03;20.70;99.90
33095;DHT22;19459;53.044;8.910;2022-07-25T00:50:29;20.70;99.90
33095;DHT22;19459;53.044;8.910;2022-07-25T00:52:56;20.70;99.90
33095;DHT22;19459;53.044;8.910;2022-07-25T00:55:22;20.70;99.90
33095;DHT22;19459;53.044;8.910;2022-07-25T00:57:49;20.60;99.90
33095;DHT22;19459;53.044;8.910;2022-07-25T01:00:16;20.60;99.90
33095;DHT22;19459;53.044;8.910;2022-07-25T01:02:43;20.50;99.90
33095;DHT22;19459;53.044;8.910;2022-07-25T01:05:09;20.50;99.90
33095;DHT22;19459;53.044;8.910;2022-07-25T01:07:37;20.40;99.90
33095;DHT22;19459;53.044;8.910;2022-07-25T01:10:05;20.40;99.90
33095;DHT22;19459;53.044;8.910;2022-07-25T01:12:52;20.40;99.90
33095;DHT22;19459;53.044;8.910;2022-07-25T01:15:21;20.30;99.90
33095;DHT22;19459;53.044;8.910;2022-07-25T01:17:48;20.30;99.90
33095;DHT22;19459;53.044;8.910;2022-07-25T01:20:19;20.20;99.90
33095;DHT22;19459;53.044;8.910;2022-07-25T01:22:49;20.10;99.90
33095;DHT22;19459;53.044;8.910;2022-07-25T01:25:16;20.10;99.90
33095;DHT22;19459;53.044;8.910;2022-07-25T01:27:43;20.10;99.90
33095;DHT22;19459;53.044;8.910;2022-07-25T01:30:11;20.10;99.90
33095;DHT22;19459;53.044;8.910;2022-07-25T01:32:39;20.10;99.90
33095;DHT22;19459;53.044;8.910;2022-07-25T01:35:07;20.10;99.90
33095;DHT22;19459;53.044;8.910;2022-07-25T01:37:34;20.00;99.90
33095;DHT22;19459;53.044;8.910;2022-07-25T01:40:00;20.00;99.90
33095;DHT22;19459;53.044;8.910;2022-07-25T01:42:27;19.90;99.90
33095;DHT22;19459;53.044;8.910;2022-07-25T01:44:54;19.90;99.90
33095;DHT22;19459;53.044;8.910;2022-07-25T01:47:20;19.90;99.90
33095;DHT22;19459;53.044;8.910;2022-07-25T01:49:46;19.80;99.90
33095;DHT22;19459;53.044;8.910;2022-07-25T01:52:12;19.90;99.90
33095;DHT22;19459;53.044;8.910;2022-07-25T01:54:39;19.90;99.90
33095;DHT22;19459;53.044;8.910;2022-07-25T01:57:06;19.80;99.90
33095;DHT22;19459;53.044;8.910;2022-07-25T01:59:35;19.80;99.90
33095;DHT22;19459;53.044;8.910;2022-07-25T02:02:03;19.80;99.90
33095;DHT22;19459;53.044;8.910;2022-07-25T02:04:29;19.80;99.90
33095;DHT22;19459;53.044;8.910;2022-07-25T02:06:55;19.80;99.90
33095;DHT22;19459;53.044;8.910;2022-07-25T02:09:21;19.90;99.90
33095;DHT22;19459;53.044;8.910;2022-07-25T02:11:47;19.90;99.90
33095;DHT22;19459;53.044;8.910;2022-07-25T02:14:13;19.90;99.90
33095;DHT22;19459;53.044;8.910;2022-07-25T02:16:39;19.90;99.90
33095;DHT22;19459;53.044;8.910;2022-07-25T02:19:05;20.00;99.90
33095;DHT22;19459;53.044;8.910;2022-07-25T02:21:31;19.90;99.90
33095;DHT22;19459;53.044;8.910;2022-07-25T02:23:57;19.80;99.90
33095;DHT22;19459;53.044;8.910;2022-07-25T02:26:23;19.80;99.90
33095;DHT22;19459;53.044;8.910;2022-07-25T02:28:49;19.80;99.90
33095;DHT22;19459;53.044;8.910;2022-07-25T02:31:15;19.80;99.90
33095;DHT22;19459;53.044;8.910;2022-07-25T02:33:41;19.80;99.90
33095;DHT22;19459;53.044;8.910;2022-07-25T02:36:09;19.80;99.90
33095;DHT22;19459;53.044;8.910;2022-07-25T02:38:37;19.70;99.90
33095;DHT22;19459;53.044;8.910;2022-07-25T02:41:03;19.70;99.90
33095;DHT22;19459;53.044;8.910;2022-07-25T02:43:29;19.70;99.90
33095;DHT22;19459;53.044;8.910;2022-07-25T02:45:55;19.70;99.90
33095;DHT22;19459;53.044;8.910;2022-07-25T02:48:21;19.70;99.90
33095;DHT22;19459;53.044;8.910;2022-07-25T02:50:47;19.60;99.90
33095;DHT22;19459;53.044;8.910;2022-07-25T02:53:13;19.70;99.90
33095;DHT22;19459;53.044;8.910;2022-07-25T02:55:39;19.60;99.90
33095;DHT22;19459;53.044;8.910;2022-07-25T02:58:05;19.60;99.90
33095;DHT22;19459;53.044;8.910;2022-07-25T03:00:31;19.60;99.90
33095;DHT22;19459;53.044;8.910;2022-07-25T03:02:57;19.60;99.90
33095;DHT22;19459;53.044;8.910;2022-07-25T03:05:23;19.50;99.90
33095;DHT22;19459;53.044;8.910;2022-07-25T03:07:49;19.50;99.90
33095;DHT22;19459;53.044;8.910;2022-07-25T03:10:15;19.50;99.90
33095;DHT22;19459;53.044;8.910;2022-07-25T03:12:42;19.50;99.90
33095;DHT22;19459;53.044;8.910;2022-07-25T03:15:10;19.50;99.90
33095;DHT22;19459;53.044;8.910;2022-07-25T03:17:37;19.50;99.90
33095;DHT22;19459;53.044;8.910;2022-07-25T03:20:05;19.50;99.90
33095;DHT22;19459;53.044;8.910;2022-07-25T03:22:32;19.40;99.90
33095;DHT22;19459;53.044;8.910;2022-07-25T03:24:58;19.40;99.90
33095;DHT22;19459;53.044;8.910;2022-07-25T03:27:24;19.40;99.90
33095;DHT22;19459;53.044;8.910;2022-07-25T03:29:50;19.40;99.90
33095;DHT22;19459;53.044;8.910;2022-07-25T03:32:16;19.40;99.90
33095;DHT22;19459;53.044;8.910;2022-07-25T03:34:42;19.30;99.90
33095;DHT22;19459;53.044;8.910;2022-07-25T03:37:08;19.30;99.90
33095;DHT22;19459;53.044;8.910;2022-07-25T03:39:34;19.30;99.90
33095;DHT22;19459;53.044;8.910;2022-07-25T03:42:00;19.30;99.90
33095;DHT22;19459;53.044;8.910;2022-07-25T03:44:26;19.20;99.90
33095;DHT22;19459;53.044;8.910;2022-07-25T03:46:52;19.30;99.90
33095;DHT22;19459;53.044;8.910;2022-07-25T03:49:18;19.20;99.90
33095;DHT22;19459;53.044;8.910;2022-07-25T03:51:44;19.30;99.90
33095;DHT22;19459;53.044;8.910;2022-07-25T03:54:10;19.30;99.90
33095;DHT22;19459;53.044;8.910;2022-07-25T03:56:44;19.30;99.90
33095;DHT22;19459;53.044;8.910;2022-07-25T03:59:14;19.30;99.90
33095;DHT22;19459;53.044;8.910;2022-07-25T04:01:42;19.20;99.90
33095;DHT22;19459;53.044;8.910;2022-07-25T04:04:08;19.30;99.90
33095;DHT22;19459;53.044;8.910;2022-07-25T04:06:35;19.30;99.90
33095;DHT22;19459;53.044;8.910;2022-07-25T04:09:02;19.30;99.90
33095;DHT22;19459;53.044;8.910;2022-07-25T04:11:28;19.30;99.90
33095;DHT22;19459;53.044;8.910;2022-07-25T04:13:55;19.30;99.90
33095;DHT22;19459;53.044;8.910;2022-07-25T04:16:22;19.30;99.90
33095;DHT22;19459;53.044;8.910;2022-07-25T04:18:49;19.30;99.90
33095;DHT22;19459;53.044;8.910;2022-07-25T04:21:16;19.30;99.90
33095;DHT22;19459;53.044;8.910;2022-07-25T04:23:42;19.30;99.90
33095;DHT22;19459;53.044;8.910;2022-07-25T04:26:08;19.30;99.90
33095;DHT22;19459;53.044;8.910;2022-07-25T04:28:34;19.40;99.90
33095;DHT22;19459;53.044;8.910;2022-07-25T04:31:00;19.40;99.90
33095;DHT22;19459;53.044;8.910;2022-07-25T04:33:27;19.50;99.90
33095;DHT22;19459;53.044;8.910;2022-07-25T04:35:53;19.50;99.90
33095;DHT22;19459;53.044;8.910;2022-07-25T04:38:19;19.60;99.90
33095;DHT22;19459;53.044;8.910;2022-07-25T04:40:45;19.60;99.90
33095;DHT22;19459;53.044;8.910;2022-07-25T04:43:11;19.70;99.90
33095;DHT22;19459;53.044;8.910;2022-07-25T04:45:39;19.80;99.90
33095;DHT22;19459;53.044;8.910;2022-07-25T04:48:05;19.80;99.90
33095;DHT22;19459;53.044;8.910;2022-07-25T04:50:32;19.90;99.90
33095;DHT22;19459;53.044;8.910;2022-07-25T04:52:59;19.90;99.90
33095;DHT22;19459;53.044;8.910;2022-07-25T04:55:25;20.00;99.90
33095;DHT22;19459;53.044;8.910;2022-07-25T04:57:51;20.00;99.90
33095;DHT22;19459;53.044;8.910;2022-07-25T05:00:17;20.00;99.90
33095;DHT22;19459;53.044;8.910;2022-07-25T05:02:43;20.00;99.90
33095;DHT22;19459;53.044;8.910;2022-07-25T05:05:09;20.10;99.90
33095;DHT22;19459;53.044;8.910;2022-07-25T05:07:36;20.20;99.90
33095;DHT22;19459;53.044;8.910;2022-07-25T05:10:03;20.20;99.90
33095;DHT22;19459;53.044;8.910;2022-07-25T05:12:30;20.30;99.90
33095;DHT22;19459;53.044;8.910;2022-07-25T05:14:55;20.30;99.90
33095;DHT22;19459;53.044;8.910;2022-07-25T05:17:22;20.50;99.90
33095;DHT22;19459;53.044;8.910;2022-07-25T05:19:48;20.60;99.90
33095;DHT22;19459;53.044;8.910;2022-07-25T05:22:14;20.70;99.90
33095;DHT22;19459;53.044;8.910;2022-07-25T05:24:40;20.80;99.90
33095;DHT22;19459;53.044;8.910;2022-07-25T05:27:06;20.80;99.90
33095;DHT22;19459;53.044;8.910;2022-07-25T05:29:32;20.90;99.90
33095;DHT22;19459;53.044;8.910;2022-07-25T05:31:58;21.00;99.90
33095;DHT22;19459;53.044;8.910;2022-07-25T05:34:24;21.10;99.90
33095;DHT22;19459;53.044;8.910;2022-07-25T05:36:50;21.10;99.90
33095;DHT22;19459;53.044;8.910;2022-07-25T05:39:16;21.10;99.90
33095;DHT22;19459;53.044;8.910;2022-07-25T05:41:41;21.20;99.90
33095;DHT22;19459;53.044;8.910;2022-07-25T05:44:08;21.20;99.90
33095;DHT22;19459;53.044;8.910;2022-07-25T05:46:34;21.20;99.90
33095;DHT22;19459;53.044;8.910;2022-07-25T05:49:00;21.30;99.90
33095;DHT22;19459;53.044;8.910;2022-07-25T05:51:27;21.40;99.90
33095;DHT22;19459;53.044;8.910;2022-07-25T05:53:54;21.40;99.90
33095;DHT22;19459;53.044;8.910;2022-07-25T05:56:20;21.40;99.90
33095;DHT22;19459;53.044;8.910;2022-07-25T05:58:46;21.50;99.90
33095;DHT22;19459;53.044;8.910;2022-07-25T06:01:14;21.60;99.90
33095;DHT22;19459;53.044;8.910;2022-07-25T06:03:41;21.70;99.90
33095;DHT22;19459;53.044;8.910;2022-07-25T06:06:07;21.80;99.90
33095;DHT22;19459;53.044;8.910;2022-07-25T06:08:34;21.90;99.90
33095;DHT22;19459;53.044;8.910;2022-07-25T06:11:00;22.00;99.90
33095;DHT22;19459;53.044;8.910;2022-07-25T06:13:28;22.10;99.90
33095;DHT22;19459;53.044;8.910;2022-07-25T06:15:54;22.20;99.90
33095;DHT22;19459;53.044;8.910;2022-07-25T06:18:21;22.40;99.90
33095;DHT22;19459;53.044;8.910;2022-07-25T06:20:47;22.60;99.90
33095;DHT22;19459;53.044;8.910;2022-07-25T06:23:14;22.70;99.90
33095;DHT22;19459;53.044;8.910;2022-07-25T06:25:40;22.90;99.90
33095;DHT22;19459;53.044;8.910;2022-07-25T06:28:06;22.80;99.90
33095;DHT22;19459;53.044;8.910;2022-07-25T06:30:33;22.90;99.90
33095;DHT22;19459;53.044;8.910;2022-07-25T06:32:59;22.90;99.90
33095;DHT22;19459;53.044;8.910;2022-07-25T06:35:25;23.00;99.90
33095;DHT22;19459;53.044;8.910;2022-07-25T06:37:51;23.20;99.90
33095;DHT22;19459;53.044;8.910;2022-07-25T06:40:17;23.40;99.70
33095;DHT22;19459;53.044;8.910;2022-07-25T06:42:45;23.60;99.00
33095;DHT22;19459;53.044;8.910;2022-07-25T06:45:12;23.90;98.90
33095;DHT22;19459;53.044;8.910;2022-07-25T06:47:40;24.10;98.10
33095;DHT22;19459;53.044;8.910;2022-07-25T06:50:09;24.30;97.60
33095;DHT22;19459;53.044;8.910;2022-07-25T06:52:36;24.40;97.00
33095;DHT22;19459;53.044;8.910;2022-07-25T06:55:03;24.50;97.10
33095;DHT22;19459;53.044;8.910;2022-07-25T06:57:30;24.60;97.20
33095;DHT22;19459;53.044;8.910;2022-07-25T06:59:56;24.80;97.10
33095;DHT22;19459;53.044;8.910;2022-07-25T07:02:22;24.90;96.30
33095;DHT22;19459;53.044;8.910;2022-07-25T07:04:48;25.00;96.10
33095;DHT22;19459;53.044;8.910;2022-07-25T07:07:14;25.10;96.00
33095;DHT22;19459;53.044;8.910;2022-07-25T07:09:41;25.30;95.40
33095;DHT22;19459;53.044;8.910;2022-07-25T07:12:08;25.50;95.50
33095;DHT22;19459;53.044;8.910;2022-07-25T07:14:35;25.60;95.40
33095;DHT22;19459;53.044;8.910;2022-07-25T07:17:04;25.80;95.00
33095;DHT22;19459;53.044;8.910;2022-07-25T07:19:30;26.10;94.50
33095;DHT22;19459;53.044;8.910;2022-07-25T07:21:56;26.40;94.60
33095;DHT22;19459;53.044;8.910;2022-07-25T07:24:22;26.70;93.20
33095;DHT22;19459;53.044;8.910;2022-07-25T07:26:48;27.00;93.10
33095;DHT22;19459;53.044;8.910;2022-07-25T07:29:14;27.10;92.70
33095;DHT22;19459;53.044;8.910;2022-07-25T07:31:40;27.30;93.00
33095;DHT22;19459;53.044;8.910;2022-07-25T07:34:06;27.60;92.80
33095;DHT22;19459;53.044;8.910;2022-07-25T07:36:32;27.70;92.30
33095;DHT22;19459;53.044;8.910;2022-07-25T07:38:58;27.90;92.00
33095;DHT22;19459;53.044;8.910;2022-07-25T07:41:24;28.10;91.90
33095;DHT22;19459;53.044;8.910;2022-07-25T07:43:51;28.30;91.00
33095;DHT22;19459;53.044;8.910;2022-07-25T07:46:17;28.30;90.70
33095;DHT22;19459;53.044;8.910;2022-07-25T07:48:43;28.10;90.70
33095;DHT22;19459;53.044;8.910;2022-07-25T07:51:12;28.10;90.70
33095;DHT22;19459;53.044;8.910;2022-07-25T07:53:38;28.30;91.30
33095;DHT22;19459;53.044;8.910;2022-07-25T07:56:22;28.20;90.30
33095;DHT22;19459;53.044;8.910;2022-07-25T07:58:48;28.10;90.70
33095;DHT22;19459;53.044;8.910;2022-07-25T08:01:14;28.20;90.50
33095;DHT22;19459;53.044;8.910;2022-07-25T08:03:40;28.20;90.60
33095;DHT22;19459;53.044;8.910;2022-07-25T08:06:06;28.00;90.20
33095;DHT22;19459;53.044;8.910;2022-07-25T08:08:32;27.90;90.60
33095;DHT22;19459;53.044;8.910;2022-07-25T08:10:58;28.10;90.90
33095;DHT22;19459;53.044;8.910;2022-07-25T08:13:29;28.20;91.10
33095;DHT22;19459;53.044;8.910;2022-07-25T08:15:59;28.50;90.40
33095;DHT22;19459;53.044;8.910;2022-07-25T08:18:27;28.80;90.10
33095;DHT22;19459;53.044;8.910;2022-07-25T08:20:54;29.00;90.10
33095;DHT22;19459;53.044;8.910;2022-07-25T08:23:21;29.30;89.30
33095;DHT22;19459;53.044;8.910;2022-07-25T08:25:47;29.40;88.60
33095;DHT22;19459;53.044;8.910;2022-07-25T08:28:14;29.50;88.50
33095;DHT22;19459;53.044;8.910;2022-07-25T08:30:40;29.50;88.40
33095;DHT22;19459;53.044;8.910;2022-07-25T08:33:08;29.70;88.60
33095;DHT22;19459;53.044;8.910;2022-07-25T08:35:37;29.60;88.60
33095;DHT22;19459;53.044;8.910;2022-07-25T08:38:06;29.80;89.60
33095;DHT22;19459;53.044;8.910;2022-07-25T08:40:33;30.00;88.50
33095;DHT22;19459;53.044;8.910;2022-07-25T08:42:59;29.80;87.30
33095;DHT22;19459;53.044;8.910;2022-07-25T08:45:26;30.20;87.40
33095;DHT22;19459;53.044;8.910;2022-07-25T08:47:53;30.40;86.80
33095;DHT22;19459;53.044;8.910;2022-07-25T08:50:29;30.80;88.20
33095;DHT22;19459;53.044;8.910;2022-07-25T08:52:55;30.90;86.40
33095;DHT22;19459;53.044;8.910;2022-07-25T08:55:23;31.30;86.60
33095;DHT22;19459;53.044;8.910;2022-07-25T08:57:51;31.20;85.10
33095;DHT22;19459;53.044;8.910;2022-07-25T09:00:23;30.90;84.60
33095;DHT22;19459;53.044;8.910;2022-07-25T09:05:25;30.40;84.30
33095;DHT22;19459;53.044;8.910;2022-07-25T09:07:53;30.10;85.10
33095;DHT22;19459;53.044;8.910;2022-07-25T09:10:22;30.10;85.30
33095;DHT22;19459;53.044;8.910;2022-07-25T09:12:59;30.20;85.90
33095;DHT22;19459;53.044;8.910;2022-07-25T09:15:43;30.60;85.20
33095;DHT22;19459;53.044;8.910;2022-07-25T09:18:11;30.90;84.60
33095;DHT22;19459;53.044;8.910;2022-07-25T09:20:47;31.20;85.00
33095;DHT22;19459;53.044;8.910;2022-07-25T09:23:28;31.00;83.30
33095;DHT22;19459;53.044;8.910;2022-07-25T09:28:28;30.90;84.50
33095;DHT22;19459;53.044;8.910;2022-07-25T09:30:55;30.90;83.60
33095;DHT22;19459;53.044;8.910;2022-07-25T09:33:24;30.60;83.50
33095;DHT22;19459;53.044;8.910;2022-07-25T09:35:52;30.40;84.00
33095;DHT22;19459;53.044;8.910;2022-07-25T09:38:19;30.60;84.10
33095;DHT22;19459;53.044;8.910;2022-07-25T09:40:57;30.90;83.20
33095;DHT22;19459;53.044;8.910;2022-07-25T09:43:40;30.70;83.80
33095;DHT22;19459;53.044;8.910;2022-07-25T09:46:08;30.60;83.50
33095;DHT22;19459;53.044;8.910;2022-07-25T09:48:36;30.60;83.50
33095;DHT22;19459;53.044;8.910;2022-07-25T09:51:04;30.90;83.50
33095;DHT22;19459;53.044;8.910;2022-07-25T09:53:32;31.00;82.70
33095;DHT22;19459;53.044;8.910;2022-07-25T09:55:58;31.10;83.10
33095;DHT22;19459;53.044;8.910;2022-07-25T09:58:25;31.60;82.80
33095;DHT22;19459;53.044;8.910;2022-07-25T10:01:02;31.10;82.20
33095;DHT22;19459;53.044;8.910;2022-07-25T10:04:13;31.10;83.50
33095;DHT22;19459;53.044;8.910;2022-07-25T10:07:02;31.10;82.50
33095;DHT22;19459;53.044;8.910;2022-07-25T10:09:32;30.90;84.00
33095;DHT22;19459;53.044;8.910;2022-07-25T10:12:05;31.00;82.50
33095;DHT22;19459;53.044;8.910;2022-07-25T10:14:32;30.80;83.80
33095;DHT22;19459;53.044;8.910;2022-07-25T10:16:59;31.10;83.70
33095;DHT22;19459;53.044;8.910;2022-07-25T10:19:55;31.10;83.40
33095;DHT22;19459;53.044;8.910;2022-07-25T10:22:21;31.40;82.80
33095;DHT22;19459;53.044;8.910;2022-07-25T10:24:47;31.50;82.10
33095;DHT22;19459;53.044;8.910;2022-07-25T10:27:23;31.90;82.00
33095;DHT22;19459;53.044;8.910;2022-07-25T10:29:52;32.30;81.40
33095;DHT22;19459;53.044;8.910;2022-07-25T10:32:18;32.80;81.60
33095;DHT22;19459;53.044;8.910;2022-07-25T10:34:52;33.20;80.20
33095;DHT22;19459;53.044;8.910;2022-07-25T10:37:25;33.40;79.10
33095;DHT22;19459;53.044;8.910;2022-07-25T10:39:52;33.20;79.40
33095;DHT22;19459;53.044;8.910;2022-07-25T10:42:22;32.90;81.90
33095;DHT22;19459;53.044;8.910;2022-07-25T10:45:00;32.80;81.50
33095;DHT22;19459;53.044;8.910;2022-07-25T10:47:33;32.00;79.40
33095;DHT22;19459;53.044;8.910;2022-07-25T10:50:10;31.50;80.40
33095;DHT22;19459;53.044;8.910;2022-07-25T10:52:40;31.30;81.30
33095;DHT22;19459;53.044;8.910;2022-07-25T10:55:21;31.30;82.70
33095;DHT22;19459;53.044;8.910;2022-07-25T10:58:01;31.10;82.40
33095;DHT22;19459;53.044;8.910;2022-07-25T11:00:31;31.50;83.10
33095;DHT22;19459;53.044;8.910;2022-07-25T11:02:58;31.60;82.70
33095;DHT22;19459;53.044;8.910;2022-07-25T11:05:26;31.80;81.70
33095;DHT22;19459;53.044;8.910;2022-07-25T11:07:54;31.80;82.60
33095;DHT22;19459;53.044;8.910;2022-07-25T11:10:27;31.90;81.50
33095;DHT22;19459;53.044;8.910;2022-07-25T11:12:54;32.50;84.00
33095;DHT22;19459;53.044;8.910;2022-07-25T11:15:22;32.70;81.70
33095;DHT22;19459;53.044;8.910;2022-07-25T11:17:52;32.30;80.20
33095;DHT22;19459;53.044;8.910;2022-07-25T11:20:20;32.30;82.70
33095;DHT22;19459;53.044;8.910;2022-07-25T11:22:53;32.70;81.20
33095;DHT22;19459;53.044;8.910;2022-07-25T11:25:20;31.80;80.00
33095;DHT22;19459;53.044;8.910;2022-07-25T11:27:58;31.70;81.70
33095;DHT22;19459;53.044;8.910;2022-07-25T11:30:26;31.80;81.10
33095;DHT22;19459;53.044;8.910;2022-07-25T11:32:57;31.80;81.10
33095;DHT22;19459;53.044;8.910;2022-07-25T11:35:30;31.80;81.00
33095;DHT22;19459;53.044;8.910;2022-07-25T11:37:59;31.80;82.10
33095;DHT22;19459;53.044;8.910;2022-07-25T11:40:26;32.20;80.80
33095;DHT22;19459;53.044;8.910;2022-07-25T11:42:55;32.20;79.80
33095;DHT22;19459;53.044;8.910;2022-07-25T11:45:26;31.80;81.60
33095;DHT22;19459;53.044;8.910;2022-07-25T11:48:05;32.00;81.50
33095;DHT22;19459;53.044;8.910;2022-07-25T11:50:33;32.10;81.70
33095;DHT22;19459;53.044;8.910;2022-07-25T11:53:03;32.20;81.00
33095;DHT22;19459;53.044;8.910;2022-07-25T11:55:32;32.10;80.30
33095;DHT22;19459;53.044;8.910;2022-07-25T11:58:03;32.10;81.50
33095;DHT22;19459;53.044;8.910;2022-07-25T12:00:33;31.80;81.90
33095;DHT22;19459;53.044;8.910;2022-07-25T12:03:11;31.90;82.40
33095;DHT22;19459;53.044;8.910;2022-07-25T12:05:38;31.90;81.80
33095;DHT22;19459;53.044;8.910;2022-07-25T12:08:12;32.00;81.90
33095;DHT22;19459;53.044;8.910;2022-07-25T12:10:41;32.10;81.90
33095;DHT22;19459;53.044;8.910;2022-07-25T12:13:09;32.30;81.90
33095;DHT22;19459;53.044;8.910;2022-07-25T12:15:37;32.30;81.70
33095;DHT22;19459;53.044;8.910;2022-07-25T12:18:07;32.20;81.50
33095;DHT22;19459;53.044;8.910;2022-07-25T12:20:40;32.10;80.80
33095;DHT22;19459;53.044;8.910;2022-07-25T12:23:09;32.00;80.90
33095;DHT22;19459;53.044;8.910;2022-07-25T12:25:39;31.80;81.50
33095;DHT22;19459;53.044;8.910;2022-07-25T12:28:06;31.30;81.20
33095;DHT22;19459;53.044;8.910;2022-07-25T12:30:33;31.40;81.80
33095;DHT22;19459;53.044;8.910;2022-07-25T12:33:00;32.10;82.60
33095;DHT22;19459;53.044;8.910;2022-07-25T12:35:26;32.70;82.00
33095;DHT22;19459;53.044;8.910;2022-07-25T12:37:52;33.40;81.50
33095;DHT22;19459;53.044;8.910;2022-07-25T12:40:19;33.40;78.90
33095;DHT22;19459;53.044;8.910;2022-07-25T12:42:46;33.50;80.10
33095;DHT22;19459;53.044;8.910;2022-07-25T12:45:13;33.60;80.80
33095;DHT22;19459;53.044;8.910;2022-07-25T12:47:43;33.80;79.20
33095;DHT22;19459;53.044;8.910;2022-07-25T12:50:10;33.90;79.80
33095;DHT22;19459;53.044;8.910;2022-07-25T12:52:36;33.00;80.40
33095;DHT22;19459;53.044;8.910;2022-07-25T12:55:04;32.80;80.70
33095;DHT22;19459;53.044;8.910;2022-07-25T12:57:31;32.80;80.80
33095;DHT22;19459;53.044;8.910;2022-07-25T12:59:57;32.50;81.30
33095;DHT22;19459;53.044;8.910;2022-07-25T13:02:23;32.80;81.10
33095;DHT22;19459;53.044;8.910;2022-07-25T13:04:49;32.80;80.80
33095;DHT22;19459;53.044;8.910;2022-07-25T13:07:15;32.50;81.50
33095;DHT22;19459;53.044;8.910;2022-07-25T13:09:41;32.20;81.10
33095;DHT22;19459;53.044;8.910;2022-07-25T13:12:07;32.00;82.20
33095;DHT22;19459;53.044;8.910;2022-07-25T13:14:33;32.00;82.80
33095;DHT22;19459;53.044;8.910;2022-07-25T13:16:59;32.00;83.00
33095;DHT22;19459;53.044;8.910;2022-07-25T13:19:25;32.00;83.10
33095;DHT22;19459;53.044;8.910;2022-07-25T13:21:51;32.00;83.10
33095;DHT22;19459;53.044;8.910;2022-07-25T13:24:17;32.00;84.60
33095;DHT22;19459;53.044;8.910;2022-07-25T13:26:43;32.10;84.20
33095;DHT22;19459;53.044;8.910;2022-07-25T13:29:09;32.10;85.30
33095;DHT22;19459;53.044;8.910;2022-07-25T13:31:36;32.10;87.90
33095;DHT22;19459;53.044;8.910;2022-07-25T13:34:04;31.60;88.30
33095;DHT22;19459;53.044;8.910;2022-07-25T13:36:35;31.50;89.90
33095;DHT22;19459;53.044;8.910;2022-07-25T13:39:03;31.10;90.10
33095;DHT22;19459;53.044;8.910;2022-07-25T13:41:29;30.60;90.60
33095;DHT22;19459;53.044;8.910;2022-07-25T13:43:55;30.40;91.40
33095;DHT22;19459;53.044;8.910;2022-07-25T13:46:22;30.00;92.10
33095;DHT22;19459;53.044;8.910;2022-07-25T13:48:47;29.80;92.60
33095;DHT22;19459;53.044;8.910;2022-07-25T13:51:13;29.50;92.30
33095;DHT22;19459;53.044;8.910;2022-07-25T13:53:39;29.60;92.30
33095;DHT22;19459;53.044;8.910;2022-07-25T13:56:06;29.50;92.50
33095;DHT22;19459;53.044;8.910;2022-07-25T13:58:32;29.40;92.70
33095;DHT22;19459;53.044;8.910;2022-07-25T14:00:58;29.50;92.30
33095;DHT22;19459;53.044;8.910;2022-07-25T14:03:23;29.50;92.20
33095;DHT22;19459;53.044;8.910;2022-07-25T14:05:50;29.40;92.20
33095;DHT22;19459;53.044;8.910;2022-07-25T14:08:16;29.20;92.10
33095;DHT22;19459;53.044;8.910;2022-07-25T14:10:42;29.00;91.50
33095;DHT22;19459;53.044;8.910;2022-07-25T14:13:08;28.60;92.00
33095;DHT22;19459;53.044;8.910;2022-07-25T14:15:34;28.50;91.20
33095;DHT22;19459;53.044;8.910;2022-07-25T14:18:03;28.20;91.40
33095;DHT22;19459;53.044;8.910;2022-07-25T14:20:29;28.20;91.30
33095;DHT22;19459;53.044;8.910;2022-07-25T14:22:55;27.70;91.50
33095;DHT22;19459;53.044;8.910;2022-07-25T14:25:21;27.40;92.10
33095;DHT22;19459;53.044;8.910;2022-07-25T14:27:47;27.10;92.10
33095;DHT22;19459;53.044;8.910;2022-07-25T14:30:13;26.90;92.50
33095;DHT22;19459;53.044;8.910;2022-07-25T14:32:39;26.70;92.60
33095;DHT22;19459;53.044;8.910;2022-07-25T14:35:05;26.40;93.30
33095;DHT22;19459;53.044;8.910;2022-07-25T14:37:32;26.10;93.90
33095;DHT22;19459;53.044;8.910;2022-07-25T14:39:59;25.70;95.00
33095;DHT22;19459;53.044;8.910;2022-07-25T14:42:26;25.50;95.40
33095;DHT22;19459;53.044;8.910;2022-07-25T14:44:53;25.20;95.70
33095;DHT22;19459;53.044;8.910;2022-07-25T14:47:20;24.90;97.20
33095;DHT22;19459;53.044;8.910;2022-07-25T14:49:47;24.80;99.20
33095;DHT22;19459;53.044;8.910;2022-07-25T14:52:13;24.40;99.90
33095;DHT22;19459;53.044;8.910;2022-07-25T14:54:40;24.30;99.90
33095;DHT22;19459;53.044;8.910;2022-07-25T14:57:07;24.10;99.90
33095;DHT22;19459;53.044;8.910;2022-07-25T14:59:33;24.10;99.90
33095;DHT22;19459;53.044;8.910;2022-07-25T15:01:59;24.20;99.90
33095;DHT22;19459;53.044;8.910;2022-07-25T15:04:25;24.30;99.90
33095;DHT22;19459;53.044;8.910;2022-07-25T15:06:52;24.30;99.90
33095;DHT22;19459;53.044;8.910;2022-07-25T15:09:19;24.10;99.90
33095;DHT22;19459;53.044;8.910;2022-07-25T15:11:45;24.30;99.90
33095;DHT22;19459;53.044;8.910;2022-07-25T15:14:11;24.30;99.90
33095;DHT22;19459;53.044;8.910;2022-07-25T15:16:38;24.50;99.90
33095;DHT22;19459;53.044;8.910;2022-07-25T15:19:04;24.50;99.90
33095;DHT22;19459;53.044;8.910;2022-07-25T15:21:33;24.70;99.90
33095;DHT22;19459;53.044;8.910;2022-07-25T15:23:59;25.10;99.90
33095;DHT22;19459;53.044;8.910;2022-07-25T15:26:25;25.20;99.90
33095;DHT22;19459;53.044;8.910;2022-07-25T15:28:52;25.30;99.90
33095;DHT22;19459;53.044;8.910;2022-07-25T15:31:18;25.30;99.90
33095;DHT22;19459;53.044;8.910;2022-07-25T15:33:46;25.30;99.90
33095;DHT22;19459;53.044;8.910;2022-07-25T15:36:11;25.10;99.90
33095;DHT22;19459;53.044;8.910;2022-07-25T15:38:37;24.90;99.90